createdAt,value
2019-05-29T00:00:41.341Z,2.63
2019-05-29T00:03:46.495Z,2.50
2019-05-29T00:06:51.930Z,2.60
2019-05-29T00:10:08.994Z,3.10
2019-05-29T00:13:10.077Z,2.83
2019-05-29T00:16:15.525Z,2.60
2019-05-29T00:19:20.683Z,2.97
2019-05-29T00:22:25.926Z,2.83
2019-05-29T00:25:31.090Z,2.90
2019-05-29T00:28:36.933Z,2.90
2019-05-29T00:31:45.815Z,3.13
2019-05-29T00:34:51.003Z,3.30
2019-05-29T00:37:56.225Z,2.80
2019-05-29T00:41:01.497Z,3.03
2019-05-29T00:44:07.075Z,3.20
2019-05-29T00:47:14.018Z,2.87
2019-05-29T00:50:27.041Z,3.30
2019-05-29T00:53:32.176Z,3.70
2019-05-29T00:56:37.431Z,3.20
2019-05-29T00:59:42.579Z,3.20
2019-05-29T01:02:49.479Z,2.93
2019-05-29T01:05:56.786Z,2.97
2019-05-29T01:09:01.923Z,3.50
2019-05-29T01:12:08.262Z,3.20
2019-05-29T01:15:15.458Z,3.57
2019-05-29T01:18:28.012Z,3.57
2019-05-29T01:21:33.266Z,2.80
2019-05-29T01:24:38.488Z,3.50
2019-05-29T01:27:43.647Z,3.70
2019-05-29T01:30:51.445Z,3.33
2019-05-29T01:33:55.590Z,3.40
2019-05-29T01:37:00.750Z,3.50
2019-05-29T01:40:19.207Z,3.40
2019-05-29T01:43:15.255Z,3.40
2019-05-29T01:46:22.157Z,3.23
2019-05-29T01:49:28.038Z,3.57
2019-05-29T01:52:35.196Z,3.60
2019-05-29T01:55:40.382Z,3.67
2019-05-29T01:58:46.617Z,3.50
2019-05-29T02:01:51.781Z,3.90
2019-05-29T02:04:56.927Z,3.80
2019-05-29T02:08:02.095Z,3.70
2019-05-29T02:11:08.389Z,3.40
2019-05-29T02:14:13.718Z,4.47
2019-05-29T02:17:19.708Z,3.80
2019-05-29T02:20:25.387Z,3.63
2019-05-29T02:23:30.607Z,4.53
2019-05-29T02:26:35.738Z,3.90
2019-05-29T02:29:40.911Z,3.77
2019-05-29T02:32:47.304Z,4.40
2019-05-29T02:35:54.652Z,4.37
2019-05-29T02:39:04.482Z,4.00
2019-05-29T02:42:09.795Z,4.50
2019-05-29T02:45:15.174Z,5.10
2019-05-29T02:48:23.226Z,4.63
2019-05-29T02:51:30.314Z,4.90
2019-05-29T02:54:35.646Z,4.87
2019-05-29T02:57:40.787Z,4.50
2019-05-29T03:00:58.281Z,4.67
2019-05-29T03:04:03.484Z,4.60
2019-05-29T03:07:08.756Z,4.40
2019-05-29T03:10:13.986Z,4.50
2019-05-29T03:13:19.436Z,4.30
2019-05-29T03:16:26.666Z,5.03
2019-05-29T03:19:32.524Z,4.67
2019-05-29T03:22:38.209Z,4.67
2019-05-29T03:25:43.354Z,5.33
2019-05-29T03:28:48.593Z,4.83
2019-05-29T03:31:53.820Z,4.57
2019-05-29T03:35:06.883Z,4.67
2019-05-29T03:38:13.133Z,4.97
2019-05-29T03:41:18.273Z,5.03
2019-05-29T03:44:23.558Z,5.17
2019-05-29T03:47:28.865Z,5.30
2019-05-29T03:50:34.934Z,4.70
2019-05-29T03:53:40.165Z,4.80
2019-05-29T03:56:46.437Z,4.83
2019-05-29T03:59:51.621Z,5.33
2019-05-29T04:02:56.766Z,5.00
2019-05-29T04:06:02.005Z,4.07
2019-05-29T04:09:13.838Z,4.40
2019-05-29T04:12:18.969Z,4.17
2019-05-29T04:15:25.239Z,3.93
2019-05-29T04:18:33.686Z,4.40
2019-05-29T04:21:41.418Z,3.50
2019-05-29T04:24:57.028Z,4.23
2019-05-29T04:28:00.313Z,3.80
2019-05-29T04:31:05.512Z,3.70
2019-05-29T04:34:11.897Z,4.23
2019-05-29T04:37:17.391Z,4.07
2019-05-29T04:40:22.605Z,3.70
2019-05-29T04:43:28.846Z,4.03
2019-05-29T04:46:35.841Z,3.90
2019-05-29T04:49:41.051Z,3.87
2019-05-29T04:52:46.194Z,3.70
2019-05-29T04:55:51.421Z,3.80
2019-05-29T04:58:56.609Z,3.57
2019-05-29T05:02:01.847Z,3.53
2019-05-29T05:05:07.383Z,3.70
2019-05-29T05:08:12.658Z,4.00
2019-05-29T05:11:19.673Z,3.10
2019-05-29T05:14:24.938Z,4.10
2019-05-29T05:17:33.776Z,3.57
2019-05-29T05:20:40.234Z,3.63
2019-05-29T05:23:45.618Z,4.60
2019-05-29T05:26:51.753Z,4.20
2019-05-29T05:29:56.872Z,3.50
2019-05-29T05:33:02.099Z,3.80
2019-05-29T05:36:07.229Z,3.37
2019-05-29T05:39:12.397Z,2.90
2019-05-29T05:42:17.523Z,3.40
2019-05-29T05:45:22.680Z,3.27
2019-05-29T05:48:27.827Z,3.40
2019-05-29T05:51:33.466Z,2.90
2019-05-29T05:54:39.573Z,3.30
2019-05-29T05:57:45.039Z,2.80
2019-05-29T06:00:52.762Z,3.10
2019-05-29T06:04:00.770Z,2.67
2019-05-29T06:07:05.948Z,3.23
2019-05-29T06:10:11.228Z,3.03
2019-05-29T06:13:16.393Z,2.83
2019-05-29T06:16:21.590Z,2.73
2019-05-29T06:19:28.092Z,3.30
2019-05-29T06:22:38.964Z,3.27
2019-05-29T06:25:44.344Z,3.10
2019-05-29T06:28:49.557Z,2.60
2019-05-29T06:31:54.768Z,3.10
2019-05-29T06:34:59.889Z,3.20
2019-05-29T06:38:06.423Z,2.70
2019-05-29T06:41:11.663Z,2.40
2019-05-29T06:44:21.551Z,2.90
2019-05-29T06:47:26.749Z,3.00
2019-05-29T06:50:31.974Z,3.80
2019-05-29T06:53:37.758Z,3.10
2019-05-29T06:56:44.527Z,3.57
2019-05-29T06:59:49.694Z,3.93
2019-05-29T07:02:54.822Z,3.03
2019-05-29T07:05:59.945Z,2.80
2019-05-29T07:09:06.479Z,3.00
2019-05-29T07:12:11.684Z,2.90
2019-05-29T07:15:17.059Z,3.47
2019-05-29T07:18:33.574Z,3.13
2019-05-29T07:21:30.758Z,3.10
2019-05-29T07:24:41.106Z,3.00
2019-05-29T07:27:47.514Z,2.70
2019-05-29T07:31:00.837Z,3.03
2019-05-29T07:33:59.545Z,2.57
2019-05-29T07:37:04.730Z,2.50
2019-05-29T07:40:10.257Z,2.63
2019-05-29T07:43:15.512Z,2.70
2019-05-29T07:46:20.738Z,1.97
2019-05-29T07:49:38.702Z,2.27
2019-05-29T07:52:43.159Z,2.23
2019-05-29T07:55:44.675Z,2.23
2019-05-29T07:59:01.523Z,2.20
2019-05-29T08:01:58.858Z,2.40
2019-05-29T08:05:04.374Z,1.90
2019-05-29T08:08:09.485Z,2.30
2019-05-29T08:11:14.669Z,2.20
2019-05-29T08:14:19.805Z,2.00
2019-05-29T08:17:24.946Z,2.13
2019-05-29T08:20:30.158Z,2.20
2019-05-29T08:23:35.343Z,2.67
2019-05-29T08:26:48.810Z,2.10
2019-05-29T08:29:49.491Z,2.20
2019-05-29T08:32:57.809Z,2.00
2019-05-29T08:36:02.926Z,2.20
2019-05-29T08:39:12.114Z,2.07
2019-05-29T08:42:23.040Z,1.80
2019-05-29T08:45:24.344Z,2.00
2019-05-29T08:48:29.539Z,2.30
2019-05-29T08:51:34.681Z,2.20
2019-05-29T08:54:39.788Z,2.30
2019-05-29T08:57:46.230Z,2.00
2019-05-29T09:00:55.254Z,1.97
2019-05-29T09:03:59.580Z,2.40
2019-05-29T09:07:06.964Z,2.10
2019-05-29T09:10:13.182Z,2.17
2019-05-29T09:13:18.469Z,2.03
2019-05-29T09:16:23.749Z,1.80
2019-05-29T09:19:29.184Z,2.10
2019-05-29T09:22:35.615Z,2.10
2019-05-29T09:25:40.760Z,2.40
2019-05-29T09:28:45.956Z,2.00
2019-05-29T09:31:51.064Z,2.10
2019-05-29T09:34:56.246Z,2.20
2019-05-29T09:38:01.388Z,2.00
2019-05-29T09:41:06.620Z,2.10
2019-05-29T09:44:28.163Z,1.90
2019-05-29T09:47:20.191Z,1.77
2019-05-29T09:50:27.622Z,1.90
2019-05-29T09:53:32.709Z,2.60
2019-05-29T09:56:39.493Z,2.10
2019-05-29T09:59:47.765Z,2.40
2019-05-29T10:02:53.917Z,2.03
2019-05-29T10:05:59.746Z,2.40
2019-05-29T10:09:07.810Z,2.20
2019-05-29T10:12:12.971Z,2.00
2019-05-29T10:15:18.740Z,2.00
2019-05-29T10:18:32.128Z,2.37
2019-05-29T10:21:40.143Z,2.10
2019-05-29T10:24:37.599Z,2.40
2019-05-29T10:27:46.376Z,2.20
2019-05-29T10:30:52.798Z,1.93
2019-05-29T10:33:59.695Z,2.67
2019-05-29T10:37:05.934Z,2.50
2019-05-29T10:40:11.431Z,2.30
2019-05-29T10:43:33.265Z,2.03
2019-05-29T10:46:23.561Z,1.80
2019-05-29T10:49:29.758Z,2.07
2019-05-29T10:52:36.129Z,2.00
2019-05-29T10:55:41.285Z,2.00
2019-05-29T10:58:53.600Z,2.50
2019-05-29T11:01:57.284Z,2.60
2019-05-29T11:05:07.090Z,2.23
2019-05-29T11:08:09.337Z,2.03
2019-05-29T11:11:14.485Z,2.27
2019-05-29T11:14:19.675Z,2.53
2019-05-29T11:17:24.903Z,2.30
2019-05-29T11:20:30.216Z,2.07
2019-05-29T11:23:35.407Z,2.50
2019-05-29T11:26:41.932Z,2.30
2019-05-29T11:29:48.596Z,2.50
2019-05-29T11:32:56.529Z,2.37
2019-05-29T11:36:10.044Z,2.47
2019-05-29T11:39:09.816Z,2.20
2019-05-29T11:42:26.782Z,2.20
2019-05-29T11:45:23.071Z,2.07
2019-05-29T11:48:28.345Z,2.33
2019-05-29T11:51:33.557Z,2.20
2019-05-29T11:54:38.789Z,2.77
2019-05-29T11:57:44.182Z,2.27
2019-05-29T12:00:49.347Z,2.20
2019-05-29T12:04:24.201Z,1.93
2019-05-29T12:07:01.612Z,2.20
2019-05-29T12:10:07.994Z,2.27
2019-05-29T12:13:13.274Z,2.10
2019-05-29T12:16:18.506Z,2.00
2019-05-29T12:19:24.651Z,2.10
2019-05-29T12:22:33.220Z,2.00
2019-05-29T12:25:38.451Z,2.30
2019-05-29T12:28:45.950Z,2.43
2019-05-29T12:31:51.126Z,2.10
2019-05-29T12:34:58.202Z,2.20
2019-05-29T12:38:03.559Z,2.37
2019-05-29T12:41:08.745Z,2.43
2019-05-29T12:44:15.485Z,2.30
2019-05-29T12:47:20.624Z,2.30
2019-05-29T12:50:27.290Z,1.87
2019-05-29T12:53:32.485Z,2.43
2019-05-29T12:56:37.656Z,1.93
2019-05-29T12:59:45.835Z,3.00
2019-05-29T13:02:51.111Z,1.80
2019-05-29T13:06:00.414Z,1.80
2019-05-29T13:09:08.023Z,1.90
2019-05-29T13:12:13.157Z,1.90
2019-05-29T13:15:18.674Z,2.07
2019-05-29T13:18:25.115Z,1.90
2019-05-29T13:21:30.286Z,2.10
2019-05-29T13:24:35.435Z,2.10
2019-05-29T13:27:47.629Z,1.53
2019-05-29T13:30:55.821Z,2.10
2019-05-29T13:34:02.033Z,2.40
2019-05-29T13:37:09.261Z,2.03
2019-05-29T13:40:14.369Z,1.90
2019-05-29T13:43:19.572Z,1.83
2019-05-29T13:46:24.707Z,2.07
2019-05-29T13:49:29.931Z,2.57
2019-05-29T13:52:36.095Z,1.97
2019-05-29T13:55:46.242Z,1.50
2019-05-29T13:58:54.620Z,1.90
2019-05-29T14:01:58.517Z,2.10
2019-05-29T14:05:04.697Z,1.80
2019-05-29T14:08:10.046Z,2.20
2019-05-29T14:11:15.163Z,2.00
2019-05-29T14:14:21.716Z,1.90
2019-05-29T14:17:26.831Z,1.80
2019-05-29T14:20:32.005Z,1.80
2019-05-29T14:23:39.666Z,2.30
2019-05-29T14:26:45.670Z,2.00
2019-05-29T14:29:50.827Z,1.70
2019-05-29T14:32:56.041Z,1.87
2019-05-29T14:36:03.243Z,1.70
2019-05-29T14:39:09.959Z,1.80
2019-05-29T14:42:19.504Z,1.87
2019-05-29T14:45:24.747Z,1.77
2019-05-29T14:48:29.887Z,2.20
2019-05-29T14:51:35.088Z,1.70
2019-05-29T14:54:42.103Z,1.90
2019-05-29T14:57:47.167Z,1.90
2019-05-29T15:00:52.353Z,2.00
2019-05-29T15:03:57.511Z,1.90
2019-05-29T15:07:03.742Z,2.00
2019-05-29T15:10:22.771Z,1.90
2019-05-29T15:13:16.365Z,2.13
2019-05-29T15:16:22.710Z,2.00
2019-05-29T15:19:32.649Z,1.80
2019-05-29T15:22:40.284Z,2.07
2019-05-29T15:25:45.866Z,1.90
2019-05-29T15:28:51.697Z,2.73
2019-05-29T15:35:28.500Z,2.40
2019-05-29T15:38:33.695Z,2.40
2019-05-29T15:41:38.816Z,1.67
2019-05-29T15:44:44.067Z,1.90
2019-05-29T15:47:49.360Z,2.10
2019-05-29T15:50:56.104Z,1.70
2019-05-29T15:54:01.268Z,1.90
2019-05-29T15:57:08.960Z,1.90
2019-05-29T16:00:15.601Z,1.80
2019-05-29T16:03:21.074Z,2.27
2019-05-29T16:06:26.191Z,2.00
2019-05-29T16:09:31.409Z,1.87
2019-05-29T16:12:36.598Z,1.90
2019-05-29T16:15:41.711Z,2.37
2019-05-29T16:18:46.869Z,1.97
2019-05-29T16:21:52.015Z,2.10
2019-05-29T16:24:57.145Z,1.77
2019-05-29T16:28:02.271Z,1.70
2019-05-29T16:31:07.368Z,2.03
2019-05-29T16:34:14.378Z,2.33
2019-05-29T16:37:19.408Z,1.90
2019-05-29T16:40:24.697Z,1.80
2019-05-29T16:43:29.797Z,2.00
2019-05-29T16:46:35.103Z,1.70
2019-05-29T16:49:40.296Z,2.27
2019-05-29T16:52:45.471Z,1.80
2019-05-29T16:55:54.643Z,1.90
2019-05-29T16:59:00.142Z,1.90
2019-05-29T17:02:05.381Z,2.10
2019-05-29T17:05:10.813Z,1.77
2019-05-29T17:08:16.070Z,2.23
2019-05-29T17:11:23.407Z,1.73
2019-05-29T17:14:28.104Z,1.73
2019-05-29T17:17:33.311Z,1.70
2019-05-29T17:20:42.930Z,1.73
2019-05-29T17:23:48.103Z,1.83
2019-05-29T17:26:53.270Z,1.90
2019-05-29T17:29:58.468Z,2.00
2019-05-29T17:33:03.683Z,1.90
2019-05-29T17:36:09.029Z,2.07
2019-05-29T17:39:15.252Z,1.73
2019-05-29T17:42:20.941Z,1.63
2019-05-29T17:45:27.443Z,1.53
2019-05-29T17:48:33.402Z,1.60
2019-05-29T17:51:38.617Z,1.50
2019-05-29T17:54:43.830Z,1.63
2019-05-29T17:57:49.128Z,1.90
2019-05-29T18:00:54.593Z,1.70
2019-05-29T18:03:59.871Z,1.33
2019-05-29T18:07:05.036Z,1.53
2019-05-29T18:10:10.367Z,1.80
2019-05-29T18:13:16.877Z,1.90
2019-05-29T18:16:23.417Z,1.90
2019-05-29T18:19:28.823Z,1.83
2019-05-29T18:22:33.981Z,1.70
2019-05-29T18:25:39.186Z,1.70
2019-05-29T18:28:44.353Z,1.80
2019-05-29T18:31:49.423Z,1.83
2019-05-29T18:34:56.560Z,1.73
2019-05-29T18:38:01.520Z,1.80
2019-05-29T18:41:06.871Z,1.90
2019-05-29T18:44:12.121Z,2.13
2019-05-29T18:47:17.388Z,1.80
2019-05-29T18:50:23.483Z,2.03
2019-05-29T18:53:28.927Z,2.30
2019-05-29T18:56:34.153Z,1.93
2019-05-29T18:59:39.379Z,2.30
2019-05-29T19:02:44.613Z,2.07
2019-05-29T19:05:49.765Z,2.20
2019-05-29T19:08:54.993Z,1.83
2019-05-29T19:12:00.233Z,2.00
2019-05-29T19:15:06.177Z,2.10
2019-05-29T19:18:12.230Z,2.30
2019-05-29T19:21:17.568Z,2.20
2019-05-29T19:24:22.671Z,2.10
2019-05-29T19:27:33.228Z,2.00
2019-05-29T19:30:34.826Z,1.80
2019-05-29T19:33:40.085Z,1.90
2019-05-29T19:36:45.425Z,1.80
2019-05-29T19:39:50.987Z,2.07
2019-05-29T19:42:56.297Z,2.00
2019-05-29T19:46:01.502Z,2.10
2019-05-29T19:49:06.704Z,1.90
2019-05-29T19:52:11.879Z,2.07
2019-05-29T19:55:17.121Z,2.10
2019-05-29T19:58:22.418Z,2.07
2019-05-29T20:01:32.838Z,2.50
2019-05-29T20:04:34.764Z,1.73
2019-05-29T20:07:39.953Z,1.83
2019-05-29T20:10:45.114Z,2.27
2019-05-29T20:13:50.293Z,1.90
2019-05-29T20:16:55.477Z,2.30
2019-05-29T20:20:00.636Z,2.13
2019-05-29T20:23:05.773Z,1.90
2019-05-29T20:26:10.958Z,1.63
2019-05-29T20:29:17.481Z,2.07
2019-05-29T20:32:22.679Z,2.13
2019-05-29T20:35:27.826Z,2.00
2019-05-29T20:38:33.257Z,2.63
2019-05-29T20:41:41.451Z,2.23
2019-05-29T20:44:46.468Z,2.10
2019-05-29T20:47:51.727Z,2.17
2019-05-29T20:50:59.286Z,2.23
2019-05-29T20:54:05.042Z,2.03
2019-05-29T20:57:13.038Z,2.40
2019-05-29T21:00:19.207Z,2.10
2019-05-29T21:03:24.459Z,2.60
2019-05-29T21:06:29.629Z,2.00
2019-05-29T21:09:34.890Z,2.23
2019-05-29T21:12:44.050Z,2.30
2019-05-29T21:15:46.975Z,2.60
2019-05-29T21:18:52.183Z,2.20
2019-05-29T21:21:57.350Z,2.43
2019-05-29T21:25:07.574Z,2.30
2019-05-29T21:28:09.468Z,2.00
2019-05-29T21:31:16.244Z,2.33
2019-05-29T21:34:21.417Z,2.57
2019-05-29T21:37:26.667Z,2.40
2019-05-29T21:40:31.874Z,2.40
2019-05-29T21:43:37.075Z,2.30
2019-05-29T21:46:43.056Z,2.40
2019-05-29T21:49:48.281Z,2.40
2019-05-29T21:52:53.418Z,2.70
2019-05-29T21:55:58.574Z,2.60
2019-05-29T21:59:04.422Z,2.33
2019-05-29T22:02:10.605Z,2.27
2019-05-29T22:05:15.974Z,2.80
2019-05-29T22:08:21.182Z,2.90
2019-05-29T22:11:26.427Z,2.40
2019-05-29T22:14:31.593Z,2.30
2019-05-29T22:17:36.712Z,2.73
2019-05-29T22:20:41.945Z,2.50
2019-05-29T22:23:47.117Z,2.40
2019-05-29T22:26:53.150Z,2.33
2019-05-29T22:29:59.428Z,2.63
2019-05-29T22:33:05.127Z,2.67
2019-05-29T22:36:10.259Z,2.70
2019-05-29T22:39:15.524Z,2.60
2019-05-29T22:42:20.784Z,2.67
2019-05-29T22:45:27.638Z,2.90
2019-05-29T22:48:32.804Z,2.40
2019-05-29T22:51:37.964Z,2.20
2019-05-29T22:54:43.368Z,2.47
2019-05-29T22:57:48.512Z,2.50
2019-05-29T23:00:54.062Z,2.80
2019-05-29T23:04:00.260Z,2.40
2019-05-29T23:07:05.554Z,2.70
2019-05-29T23:10:11.063Z,2.90
2019-05-29T23:13:16.265Z,2.63
2019-05-29T23:16:21.503Z,2.80
2019-05-29T23:19:26.664Z,2.97
2019-05-29T23:22:31.837Z,2.90
2019-05-29T23:25:37.002Z,2.87
2019-05-29T23:28:42.158Z,2.60
2019-05-29T23:31:47.283Z,2.87
2019-05-29T23:34:52.931Z,2.70
2019-05-29T23:37:59.175Z,2.40
2019-05-29T23:41:04.502Z,2.70
2019-05-29T23:44:09.710Z,2.70
2019-05-29T23:47:14.939Z,2.90
2019-05-29T23:50:20.105Z,2.50
2019-05-29T23:53:27.217Z,3.23
2019-05-29T23:56:32.165Z,2.80
2019-05-29T23:59:37.315Z,2.70
